sensor_id;sensor_type;location;lat;lon;timestamp;P1;durP1;ratioP1;P2;durP2;ratioP2
7031;SDS011;3557;48.880;8.328;2024-03-08T00:00:22;26.87;;;18.33;;
7031;SDS011;3557;48.880;8.328;2024-03-08T00:02:49;29.87;;;18.90;;
7031;SDS011;3557;48.880;8.328;2024-03-08T00:05:16;28.70;;;18.63;;
7031;SDS011;3557;48.880;8.328;2024-03-08T00:07:45;30.57;;;19.93;;
7031;SDS011;3557;48.880;8.328;2024-03-08T00:10:13;26.40;;;18.20;;
7031;SDS011;3557;48.880;8.328;2024-03-08T00:12:42;27.80;;;18.60;;
7031;SDS011;3557;48.880;8.328;2024-03-08T00:15:11;27.30;;;18.47;;
7031;SDS011;3557;48.880;8.328;2024-03-08T00:17:40;26.80;;;18.07;;
7031;SDS011;3557;48.880;8.328;2024-03-08T00:20:07;26.27;;;18.30;;
7031;SDS011;3557;48.880;8.328;2024-03-08T00:22:35;25.87;;;17.30;;
7031;SDS011;3557;48.880;8.328;2024-03-08T00:25:05;26.43;;;18.20;;
7031;SDS011;3557;48.880;8.328;2024-03-08T00:27:34;30.83;;;18.83;;
7031;SDS011;3557;48.880;8.328;2024-03-08T00:30:02;25.83;;;18.20;;
7031;SDS011;3557;48.880;8.328;2024-03-08T00:32:31;27.23;;;18.13;;
7031;SDS011;3557;48.880;8.328;2024-03-08T00:34:58;28.60;;;17.87;;
7031;SDS011;3557;48.880;8.328;2024-03-08T00:37:26;24.97;;;17.17;;
7031;SDS011;3557;48.880;8.328;2024-03-08T00:39:54;25.03;;;17.57;;
7031;SDS011;3557;48.880;8.328;2024-03-08T00:42:22;26.37;;;17.07;;
7031;SDS011;3557;48.880;8.328;2024-03-08T00:44:50;27.27;;;17.13;;
7031;SDS011;3557;48.880;8.328;2024-03-08T00:47:17;25.80;;;17.47;;
7031;SDS011;3557;48.880;8.328;2024-03-08T00:49:45;24.60;;;17.43;;
7031;SDS011;3557;48.880;8.328;2024-03-08T00:52:12;27.40;;;17.67;;
7031;SDS011;3557;48.880;8.328;2024-03-08T00:54:40;24.40;;;17.40;;
7031;SDS011;3557;48.880;8.328;2024-03-08T00:57:08;28.20;;;18.37;;
7031;SDS011;3557;48.880;8.328;2024-03-08T00:59:37;27.33;;;17.90;;
7031;SDS011;3557;48.880;8.328;2024-03-08T01:02:04;28.10;;;18.20;;
7031;SDS011;3557;48.880;8.328;2024-03-08T01:04:34;28.90;;;18.37;;
7031;SDS011;3557;48.880;8.328;2024-03-08T01:07:01;26.77;;;18.33;;
7031;SDS011;3557;48.880;8.328;2024-03-08T01:09:28;25.83;;;17.77;;
7031;SDS011;3557;48.880;8.328;2024-03-08T01:11:56;27.63;;;17.70;;
7031;SDS011;3557;48.880;8.328;2024-03-08T01:14:33;25.97;;;17.33;;
7031;SDS011;3557;48.880;8.328;2024-03-08T01:17:02;25.23;;;16.77;;
7031;SDS011;3557;48.880;8.328;2024-03-08T01:19:29;25.23;;;17.33;;
7031;SDS011;3557;48.880;8.328;2024-03-08T01:21:58;28.03;;;18.90;;
7031;SDS011;3557;48.880;8.328;2024-03-08T01:24:25;24.87;;;17.27;;
7031;SDS011;3557;48.880;8.328;2024-03-08T01:26:52;24.10;;;17.53;;
7031;SDS011;3557;48.880;8.328;2024-03-08T01:29:20;28.60;;;17.73;;
7031;SDS011;3557;48.880;8.328;2024-03-08T01:31:47;27.33;;;17.47;;
7031;SDS011;3557;48.880;8.328;2024-03-08T01:34:16;26.53;;;17.87;;
7031;SDS011;3557;48.880;8.328;2024-03-08T01:36:43;26.40;;;18.13;;
7031;SDS011;3557;48.880;8.328;2024-03-08T01:39:11;22.70;;;17.00;;
7031;SDS011;3557;48.880;8.328;2024-03-08T01:41:38;26.10;;;17.27;;
7031;SDS011;3557;48.880;8.328;2024-03-08T01:44:05;27.20;;;18.17;;
7031;SDS011;3557;48.880;8.328;2024-03-08T01:46:34;22.87;;;16.80;;
7031;SDS011;3557;48.880;8.328;2024-03-08T01:49:01;24.10;;;17.23;;
7031;SDS011;3557;48.880;8.328;2024-03-08T01:51:30;25.33;;;17.47;;
7031;SDS011;3557;48.880;8.328;2024-03-08T01:53:58;23.77;;;17.00;;
7031;SDS011;3557;48.880;8.328;2024-03-08T01:56:27;24.43;;;17.10;;
7031;SDS011;3557;48.880;8.328;2024-03-08T01:58:56;24.17;;;16.13;;
7031;SDS011;3557;48.880;8.328;2024-03-08T02:01:24;23.80;;;16.73;;
7031;SDS011;3557;48.880;8.328;2024-03-08T02:03:52;23.27;;;16.83;;
7031;SDS011;3557;48.880;8.328;2024-03-08T02:06:19;25.53;;;17.10;;
7031;SDS011;3557;48.880;8.328;2024-03-08T02:08:48;22.40;;;16.40;;
7031;SDS011;3557;48.880;8.328;2024-03-08T02:11:16;24.57;;;16.43;;
7031;SDS011;3557;48.880;8.328;2024-03-08T02:13:45;23.87;;;17.03;;
7031;SDS011;3557;48.880;8.328;2024-03-08T02:16:19;25.40;;;16.97;;
7031;SDS011;3557;48.880;8.328;2024-03-08T02:18:47;26.43;;;17.13;;
7031;SDS011;3557;48.880;8.328;2024-03-08T02:21:17;24.93;;;16.97;;
7031;SDS011;3557;48.880;8.328;2024-03-08T02:23:45;26.20;;;17.60;;
7031;SDS011;3557;48.880;8.328;2024-03-08T02:26:12;25.17;;;16.43;;
7031;SDS011;3557;48.880;8.328;2024-03-08T02:28:40;22.47;;;16.17;;
7031;SDS011;3557;48.880;8.328;2024-03-08T02:31:08;21.37;;;15.73;;
7031;SDS011;3557;48.880;8.328;2024-03-08T02:33:36;22.67;;;15.97;;
7031;SDS011;3557;48.880;8.328;2024-03-08T02:36:03;22.60;;;16.07;;
7031;SDS011;3557;48.880;8.328;2024-03-08T02:38:33;21.17;;;14.97;;
7031;SDS011;3557;48.880;8.328;2024-03-08T02:41:01;25.10;;;16.10;;
7031;SDS011;3557;48.880;8.328;2024-03-08T02:43:29;22.87;;;16.23;;
7031;SDS011;3557;48.880;8.328;2024-03-08T02:45:56;22.60;;;16.20;;
7031;SDS011;3557;48.880;8.328;2024-03-08T02:48:24;25.07;;;16.10;;
7031;SDS011;3557;48.880;8.328;2024-03-08T02:50:52;22.93;;;15.80;;
7031;SDS011;3557;48.880;8.328;2024-03-08T02:53:19;20.33;;;15.07;;
7031;SDS011;3557;48.880;8.328;2024-03-08T02:55:48;21.63;;;15.60;;
7031;SDS011;3557;48.880;8.328;2024-03-08T02:58:16;23.17;;;16.07;;
7031;SDS011;3557;48.880;8.328;2024-03-08T03:00:43;22.13;;;14.67;;
7031;SDS011;3557;48.880;8.328;2024-03-08T03:03:11;21.60;;;14.93;;
7031;SDS011;3557;48.880;8.328;2024-03-08T03:05:38;22.73;;;16.37;;
7031;SDS011;3557;48.880;8.328;2024-03-08T03:08:06;21.73;;;15.47;;
7031;SDS011;3557;48.880;8.328;2024-03-08T03:10:34;21.63;;;14.73;;
7031;SDS011;3557;48.880;8.328;2024-03-08T03:13:03;22.80;;;15.57;;
7031;SDS011;3557;48.880;8.328;2024-03-08T03:15:31;24.10;;;15.30;;
7031;SDS011;3557;48.880;8.328;2024-03-08T03:17:59;23.97;;;15.53;;
7031;SDS011;3557;48.880;8.328;2024-03-08T03:20:26;19.27;;;14.40;;
7031;SDS011;3557;48.880;8.328;2024-03-08T03:22:57;22.27;;;15.37;;
7031;SDS011;3557;48.880;8.328;2024-03-08T03:25:26;20.63;;;14.80;;
7031;SDS011;3557;48.880;8.328;2024-03-08T03:27:59;22.77;;;15.07;;
7031;SDS011;3557;48.880;8.328;2024-03-08T03:30:28;21.50;;;15.70;;
7031;SDS011;3557;48.880;8.328;2024-03-08T03:32:58;21.60;;;14.83;;
7031;SDS011;3557;48.880;8.328;2024-03-08T03:35:26;21.93;;;14.97;;
7031;SDS011;3557;48.880;8.328;2024-03-08T03:37:54;22.63;;;15.17;;
7031;SDS011;3557;48.880;8.328;2024-03-08T03:40:31;22.40;;;15.40;;
7031;SDS011;3557;48.880;8.328;2024-03-08T03:42:59;22.70;;;15.43;;
7031;SDS011;3557;48.880;8.328;2024-03-08T03:45:29;22.80;;;15.63;;
7031;SDS011;3557;48.880;8.328;2024-03-08T03:48:00;22.00;;;15.53;;
7031;SDS011;3557;48.880;8.328;2024-03-08T03:50:28;22.13;;;16.07;;
7031;SDS011;3557;48.880;8.328;2024-03-08T03:52:59;22.37;;;15.20;;
7031;SDS011;3557;48.880;8.328;2024-03-08T03:55:27;22.53;;;15.07;;
7031;SDS011;3557;48.880;8.328;2024-03-08T03:57:54;21.80;;;15.47;;
7031;SDS011;3557;48.880;8.328;2024-03-08T04:00:24;22.10;;;15.03;;
7031;SDS011;3557;48.880;8.328;2024-03-08T04:02:53;22.23;;;15.47;;
7031;SDS011;3557;48.880;8.328;2024-03-08T04:05:24;21.00;;;15.07;;
7031;SDS011;3557;48.880;8.328;2024-03-08T04:07:51;22.17;;;15.00;;
7031;SDS011;3557;48.880;8.328;2024-03-08T04:10:19;22.80;;;15.43;;
7031;SDS011;3557;48.880;8.328;2024-03-08T04:12:46;22.67;;;15.67;;
7031;SDS011;3557;48.880;8.328;2024-03-08T04:15:14;20.73;;;15.10;;
7031;SDS011;3557;48.880;8.328;2024-03-08T04:17:41;20.93;;;15.27;;
7031;SDS011;3557;48.880;8.328;2024-03-08T04:20:12;22.57;;;15.63;;
7031;SDS011;3557;48.880;8.328;2024-03-08T04:22:39;22.07;;;14.67;;
7031;SDS011;3557;48.880;8.328;2024-03-08T04:25:08;21.23;;;14.90;;
7031;SDS011;3557;48.880;8.328;2024-03-08T04:27:36;21.40;;;15.77;;
7031;SDS011;3557;48.880;8.328;2024-03-08T04:30:05;21.17;;;14.33;;
7031;SDS011;3557;48.880;8.328;2024-03-08T04:32:33;22.37;;;14.60;;
7031;SDS011;3557;48.880;8.328;2024-03-08T04:35:01;24.03;;;15.53;;
7031;SDS011;3557;48.880;8.328;2024-03-08T04:37:30;22.50;;;15.17;;
7031;SDS011;3557;48.880;8.328;2024-03-08T04:39:57;22.30;;;14.30;;
7031;SDS011;3557;48.880;8.328;2024-03-08T04:42:25;19.70;;;14.40;;
7031;SDS011;3557;48.880;8.328;2024-03-08T04:44:53;20.13;;;14.30;;
7031;SDS011;3557;48.880;8.328;2024-03-08T04:47:21;19.83;;;14.20;;
7031;SDS011;3557;48.880;8.328;2024-03-08T04:49:48;20.63;;;14.13;;
7031;SDS011;3557;48.880;8.328;2024-03-08T04:52:16;20.00;;;14.47;;
7031;SDS011;3557;48.880;8.328;2024-03-08T04:54:45;19.40;;;14.13;;
7031;SDS011;3557;48.880;8.328;2024-03-08T04:57:12;20.73;;;13.57;;
7031;SDS011;3557;48.880;8.328;2024-03-08T04:59:39;19.70;;;13.73;;
7031;SDS011;3557;48.880;8.328;2024-03-08T05:02:07;18.57;;;13.60;;
7031;SDS011;3557;48.880;8.328;2024-03-08T05:04:34;17.90;;;12.90;;
7031;SDS011;3557;48.880;8.328;2024-03-08T05:07:01;18.80;;;13.73;;
7031;SDS011;3557;48.880;8.328;2024-03-08T05:09:29;19.30;;;14.00;;
7031;SDS011;3557;48.880;8.328;2024-03-08T05:11:59;19.30;;;13.83;;
7031;SDS011;3557;48.880;8.328;2024-03-08T05:14:26;18.33;;;13.90;;
7031;SDS011;3557;48.880;8.328;2024-03-08T05:16:54;24.27;;;14.90;;
7031;SDS011;3557;48.880;8.328;2024-03-08T05:19:22;20.33;;;15.30;;
7031;SDS011;3557;48.880;8.328;2024-03-08T05:21:49;22.40;;;15.33;;
7031;SDS011;3557;48.880;8.328;2024-03-08T05:24:17;22.57;;;15.50;;
7031;SDS011;3557;48.880;8.328;2024-03-08T05:26:44;20.73;;;14.70;;
7031;SDS011;3557;48.880;8.328;2024-03-08T05:29:14;21.77;;;14.63;;
7031;SDS011;3557;48.880;8.328;2024-03-08T05:31:43;18.03;;;13.33;;
7031;SDS011;3557;48.880;8.328;2024-03-08T05:34:15;18.97;;;13.90;;
7031;SDS011;3557;48.880;8.328;2024-03-08T05:36:44;20.80;;;13.70;;
7031;SDS011;3557;48.880;8.328;2024-03-08T05:39:12;20.07;;;13.87;;
7031;SDS011;3557;48.880;8.328;2024-03-08T05:41:40;21.40;;;14.77;;
7031;SDS011;3557;48.880;8.328;2024-03-08T05:44:07;20.77;;;13.87;;
7031;SDS011;3557;48.880;8.328;2024-03-08T05:46:36;18.33;;;12.67;;
7031;SDS011;3557;48.880;8.328;2024-03-08T05:49:04;22.30;;;13.93;;
7031;SDS011;3557;48.880;8.328;2024-03-08T05:51:32;19.50;;;14.10;;
7031;SDS011;3557;48.880;8.328;2024-03-08T05:54:00;18.53;;;13.43;;
7031;SDS011;3557;48.880;8.328;2024-03-08T05:56:28;18.37;;;13.30;;
7031;SDS011;3557;48.880;8.328;2024-03-08T05:58:56;21.23;;;13.90;;
7031;SDS011;3557;48.880;8.328;2024-03-08T06:01:24;20.63;;;14.10;;
7031;SDS011;3557;48.880;8.328;2024-03-08T06:03:53;21.37;;;14.77;;
7031;SDS011;3557;48.880;8.328;2024-03-08T06:06:21;23.00;;;15.13;;
7031;SDS011;3557;48.880;8.328;2024-03-08T06:08:48;23.33;;;14.80;;
7031;SDS011;3557;48.880;8.328;2024-03-08T06:11:16;22.23;;;15.27;;
7031;SDS011;3557;48.880;8.328;2024-03-08T06:13:44;19.70;;;14.23;;
7031;SDS011;3557;48.880;8.328;2024-03-08T06:16:12;21.10;;;15.00;;
7031;SDS011;3557;48.880;8.328;2024-03-08T06:18:39;20.27;;;14.30;;
7031;SDS011;3557;48.880;8.328;2024-03-08T06:21:08;20.90;;;14.77;;
7031;SDS011;3557;48.880;8.328;2024-03-08T06:23:36;20.20;;;14.23;;
7031;SDS011;3557;48.880;8.328;2024-03-08T06:26:04;20.70;;;14.30;;
7031;SDS011;3557;48.880;8.328;2024-03-08T06:28:31;20.80;;;14.67;;
7031;SDS011;3557;48.880;8.328;2024-03-08T06:31:00;20.37;;;14.73;;
7031;SDS011;3557;48.880;8.328;2024-03-08T06:33:27;20.03;;;14.13;;
7031;SDS011;3557;48.880;8.328;2024-03-08T06:35:55;24.47;;;15.17;;
7031;SDS011;3557;48.880;8.328;2024-03-08T06:38:24;25.37;;;16.13;;
7031;SDS011;3557;48.880;8.328;2024-03-08T06:40:52;23.40;;;15.93;;
7031;SDS011;3557;48.880;8.328;2024-03-08T06:43:20;21.00;;;14.80;;
7031;SDS011;3557;48.880;8.328;2024-03-08T06:45:49;28.03;;;17.97;;
7031;SDS011;3557;48.880;8.328;2024-03-08T06:48:17;24.77;;;16.90;;
7031;SDS011;3557;48.880;8.328;2024-03-08T06:50:45;30.90;;;20.87;;
7031;SDS011;3557;48.880;8.328;2024-03-08T06:53:13;24.27;;;17.37;;
7031;SDS011;3557;48.880;8.328;2024-03-08T06:55:45;20.07;;;15.00;;
7031;SDS011;3557;48.880;8.328;2024-03-08T06:58:12;17.27;;;13.27;;
7031;SDS011;3557;48.880;8.328;2024-03-08T07:00:41;18.50;;;13.83;;
7031;SDS011;3557;48.880;8.328;2024-03-08T07:03:09;17.07;;;13.03;;
7031;SDS011;3557;48.880;8.328;2024-03-08T07:05:42;19.10;;;14.00;;
7031;SDS011;3557;48.880;8.328;2024-03-08T07:08:09;18.57;;;13.50;;
7031;SDS011;3557;48.880;8.328;2024-03-08T07:10:42;17.70;;;12.70;;
7031;SDS011;3557;48.880;8.328;2024-03-08T07:13:11;15.67;;;12.40;;
7031;SDS011;3557;48.880;8.328;2024-03-08T07:15:39;16.60;;;13.10;;
7031;SDS011;3557;48.880;8.328;2024-03-08T07:18:07;16.97;;;12.73;;
7031;SDS011;3557;48.880;8.328;2024-03-08T07:20:39;16.63;;;13.10;;
7031;SDS011;3557;48.880;8.328;2024-03-08T07:23:08;16.10;;;12.90;;
7031;SDS011;3557;48.880;8.328;2024-03-08T07:25:36;18.07;;;13.00;;
7031;SDS011;3557;48.880;8.328;2024-03-08T07:28:04;18.40;;;13.70;;
7031;SDS011;3557;48.880;8.328;2024-03-08T07:30:34;17.10;;;13.10;;
7031;SDS011;3557;48.880;8.328;2024-03-08T07:33:15;19.00;;;13.70;;
7031;SDS011;3557;48.880;8.328;2024-03-08T07:35:42;16.42;;;12.80;;
7031;SDS011;3557;48.880;8.328;2024-03-08T07:38:10;16.58;;;13.30;;
7031;SDS011;3557;48.880;8.328;2024-03-08T07:40:38;16.25;;;12.00;;
7031;SDS011;3557;48.880;8.328;2024-03-08T07:43:09;15.65;;;11.68;;
7031;SDS011;3557;48.880;8.328;2024-03-08T07:45:39;15.20;;;12.65;;
7031;SDS011;3557;48.880;8.328;2024-03-08T07:48:06;14.90;;;11.93;;
7031;SDS011;3557;48.880;8.328;2024-03-08T07:50:35;16.38;;;11.77;;
7031;SDS011;3557;48.880;8.328;2024-03-08T07:53:04;13.30;;;11.05;;
7031;SDS011;3557;48.880;8.328;2024-03-08T07:55:32;15.57;;;11.80;;
7031;SDS011;3557;48.880;8.328;2024-03-08T07:58:00;15.20;;;11.88;;
7031;SDS011;3557;48.880;8.328;2024-03-08T08:00:28;14.00;;;12.07;;
7031;SDS011;3557;48.880;8.328;2024-03-08T08:02:57;15.10;;;12.02;;
7031;SDS011;3557;48.880;8.328;2024-03-08T08:05:25;14.38;;;11.68;;
7031;SDS011;3557;48.880;8.328;2024-03-08T08:07:52;16.50;;;11.40;;
7031;SDS011;3557;48.880;8.328;2024-03-08T08:10:19;16.00;;;11.65;;
7031;SDS011;3557;48.880;8.328;2024-03-08T08:12:47;15.20;;;11.90;;
7031;SDS011;3557;48.880;8.328;2024-03-08T08:15:15;16.10;;;12.23;;
7031;SDS011;3557;48.880;8.328;2024-03-08T08:17:43;16.05;;;11.45;;
7031;SDS011;3557;48.880;8.328;2024-03-08T08:20:12;14.77;;;11.25;;
7031;SDS011;3557;48.880;8.328;2024-03-08T08:22:40;14.45;;;11.68;;
7031;SDS011;3557;48.880;8.328;2024-03-08T08:25:08;16.10;;;11.75;;
7031;SDS011;3557;48.880;8.328;2024-03-08T08:27:38;14.50;;;11.70;;
7031;SDS011;3557;48.880;8.328;2024-03-08T08:30:08;14.45;;;11.27;;
7031;SDS011;3557;48.880;8.328;2024-03-08T08:32:36;13.73;;;10.90;;
7031;SDS011;3557;48.880;8.328;2024-03-08T08:35:04;14.80;;;10.77;;
7031;SDS011;3557;48.880;8.328;2024-03-08T08:37:39;13.93;;;10.82;;
7031;SDS011;3557;48.880;8.328;2024-03-08T08:40:07;14.10;;;11.23;;
7031;SDS011;3557;48.880;8.328;2024-03-08T08:42:39;12.85;;;10.65;;
7031;SDS011;3557;48.880;8.328;2024-03-08T08:45:07;13.18;;;10.95;;
7031;SDS011;3557;48.880;8.328;2024-03-08T08:47:35;13.45;;;10.90;;
7031;SDS011;3557;48.880;8.328;2024-03-08T08:50:03;14.80;;;10.95;;
7031;SDS011;3557;48.880;8.328;2024-03-08T08:52:33;13.60;;;11.10;;
7031;SDS011;3557;48.880;8.328;2024-03-08T08:55:02;14.82;;;11.00;;
7031;SDS011;3557;48.880;8.328;2024-03-08T08:57:31;13.82;;;10.70;;
7031;SDS011;3557;48.880;8.328;2024-03-08T08:59:58;13.90;;;10.75;;
7031;SDS011;3557;48.880;8.328;2024-03-08T09:02:26;13.00;;;10.32;;
7031;SDS011;3557;48.880;8.328;2024-03-08T09:04:54;12.15;;;10.05;;
7031;SDS011;3557;48.880;8.328;2024-03-08T09:07:22;13.15;;;10.98;;
7031;SDS011;3557;48.880;8.328;2024-03-08T09:09:49;15.75;;;10.95;;
7031;SDS011;3557;48.880;8.328;2024-03-08T09:12:18;12.88;;;10.20;;
7031;SDS011;3557;48.880;8.328;2024-03-08T09:14:46;13.15;;;9.40;;
7031;SDS011;3557;48.880;8.328;2024-03-08T09:17:13;10.93;;;9.65;;
7031;SDS011;3557;48.880;8.328;2024-03-08T09:19:42;12.23;;;9.68;;
7031;SDS011;3557;48.880;8.328;2024-03-08T09:22:10;14.65;;;10.30;;
7031;SDS011;3557;48.880;8.328;2024-03-08T09:24:38;12.68;;;10.10;;
7031;SDS011;3557;48.880;8.328;2024-03-08T09:27:05;13.85;;;10.98;;
7031;SDS011;3557;48.880;8.328;2024-03-08T09:29:36;11.63;;;9.65;;
7031;SDS011;3557;48.880;8.328;2024-03-08T09:32:03;10.02;;;8.90;;
7031;SDS011;3557;48.880;8.328;2024-03-08T09:34:32;21.25;;;9.90;;
7031;SDS011;3557;48.880;8.328;2024-03-08T09:37:00;10.40;;;9.25;;
7031;SDS011;3557;48.880;8.328;2024-03-08T09:39:29;10.38;;;9.25;;
7031;SDS011;3557;48.880;8.328;2024-03-08T09:41:58;11.07;;;9.20;;
7031;SDS011;3557;48.880;8.328;2024-03-08T09:44:26;10.52;;;9.43;;
7031;SDS011;3557;48.880;8.328;2024-03-08T09:46:55;10.82;;;9.23;;
7031;SDS011;3557;48.880;8.328;2024-03-08T09:49:23;11.32;;;9.73;;
7031;SDS011;3557;48.880;8.328;2024-03-08T09:51:51;11.63;;;8.88;;
7031;SDS011;3557;48.880;8.328;2024-03-08T09:54:18;11.23;;;9.10;;
7031;SDS011;3557;48.880;8.328;2024-03-08T09:56:47;9.95;;;8.73;;
7031;SDS011;3557;48.880;8.328;2024-03-08T09:59:15;10.45;;;9.07;;
7031;SDS011;3557;48.880;8.328;2024-03-08T10:02:10;10.32;;;8.80;;
7031;SDS011;3557;48.880;8.328;2024-03-08T10:04:41;9.85;;;8.68;;
7031;SDS011;3557;48.880;8.328;2024-03-08T10:07:08;12.00;;;9.13;;
7031;SDS011;3557;48.880;8.328;2024-03-08T10:09:36;11.38;;;9.05;;
7031;SDS011;3557;48.880;8.328;2024-03-08T10:12:04;9.73;;;8.63;;
7031;SDS011;3557;48.880;8.328;2024-03-08T10:14:32;10.10;;;8.85;;
7031;SDS011;3557;48.880;8.328;2024-03-08T10:16:59;13.20;;;9.25;;
7031;SDS011;3557;48.880;8.328;2024-03-08T10:19:28;11.05;;;9.20;;
7031;SDS011;3557;48.880;8.328;2024-03-08T10:21:55;10.88;;;8.93;;
7031;SDS011;3557;48.880;8.328;2024-03-08T10:24:23;13.20;;;9.65;;
7031;SDS011;3557;48.880;8.328;2024-03-08T10:26:52;10.45;;;8.95;;
7031;SDS011;3557;48.880;8.328;2024-03-08T10:29:20;10.70;;;9.45;;
7031;SDS011;3557;48.880;8.328;2024-03-08T10:31:47;11.85;;;9.30;;
7031;SDS011;3557;48.880;8.328;2024-03-08T10:34:16;11.07;;;9.30;;
7031;SDS011;3557;48.880;8.328;2024-03-08T10:36:46;11.02;;;9.32;;
7031;SDS011;3557;48.880;8.328;2024-03-08T10:39:21;10.40;;;9.15;;
7031;SDS011;3557;48.880;8.328;2024-03-08T10:41:52;10.30;;;8.82;;
7031;SDS011;3557;48.880;8.328;2024-03-08T10:44:28;12.18;;;8.52;;
7031;SDS011;3557;48.880;8.328;2024-03-08T10:47:18;10.85;;;8.93;;
7031;SDS011;3557;48.880;8.328;2024-03-08T10:49:55;10.05;;;8.95;;
7031;SDS011;3557;48.880;8.328;2024-03-08T10:52:30;11.07;;;9.38;;
7031;SDS011;3557;48.880;8.328;2024-03-08T10:54:59;10.23;;;8.70;;
7031;SDS011;3557;48.880;8.328;2024-03-08T10:57:29;10.27;;;9.18;;
7031;SDS011;3557;48.880;8.328;2024-03-08T10:59:56;12.82;;;10.10;;
7031;SDS011;3557;48.880;8.328;2024-03-08T11:02:25;12.35;;;9.98;;
7031;SDS011;3557;48.880;8.328;2024-03-08T11:04:53;11.48;;;9.32;;
7031;SDS011;3557;48.880;8.328;2024-03-08T11:07:21;12.20;;;9.10;;
7031;SDS011;3557;48.880;8.328;2024-03-08T11:09:51;11.52;;;9.35;;
7031;SDS011;3557;48.880;8.328;2024-03-08T11:12:19;12.57;;;9.60;;
7031;SDS011;3557;48.880;8.328;2024-03-08T11:14:50;12.55;;;9.18;;
7031;SDS011;3557;48.880;8.328;2024-03-08T11:17:26;11.07;;;9.20;;
7031;SDS011;3557;48.880;8.328;2024-03-08T11:20:09;10.55;;;8.50;;
7031;SDS011;3557;48.880;8.328;2024-03-08T11:22:41;10.80;;;8.70;;
7031;SDS011;3557;48.880;8.328;2024-03-08T11:25:35;12.38;;;9.13;;
7031;SDS011;3557;48.880;8.328;2024-03-08T11:28:07;11.15;;;9.02;;
7031;SDS011;3557;48.880;8.328;2024-03-08T11:30:45;12.05;;;10.10;;
7031;SDS011;3557;48.880;8.328;2024-03-08T11:33:38;11.52;;;9.10;;
7031;SDS011;3557;48.880;8.328;2024-03-08T11:36:10;10.88;;;9.60;;
7031;SDS011;3557;48.880;8.328;2024-03-08T11:38:41;13.70;;;9.35;;
7031;SDS011;3557;48.880;8.328;2024-03-08T11:41:10;13.55;;;9.40;;
7031;SDS011;3557;48.880;8.328;2024-03-08T11:43:39;11.10;;;9.15;;
7031;SDS011;3557;48.880;8.328;2024-03-08T11:46:07;9.98;;;8.60;;
7031;SDS011;3557;48.880;8.328;2024-03-08T11:48:35;11.43;;;9.25;;
7031;SDS011;3557;48.880;8.328;2024-03-08T11:51:03;11.30;;;9.10;;
7031;SDS011;3557;48.880;8.328;2024-03-08T11:53:31;11.70;;;9.10;;
7031;SDS011;3557;48.880;8.328;2024-03-08T11:56:05;10.63;;;8.75;;
7031;SDS011;3557;48.880;8.328;2024-03-08T11:58:35;10.52;;;8.85;;
7031;SDS011;3557;48.880;8.328;2024-03-08T12:01:03;11.43;;;9.38;;
7031;SDS011;3557;48.880;8.328;2024-03-08T12:03:32;10.55;;;9.27;;
7031;SDS011;3557;48.880;8.328;2024-03-08T12:06:00;10.60;;;8.70;;
7031;SDS011;3557;48.880;8.328;2024-03-08T12:08:30;11.77;;;8.25;;
7031;SDS011;3557;48.880;8.328;2024-03-08T12:10:57;10.43;;;8.88;;
7031;SDS011;3557;48.880;8.328;2024-03-08T12:13:25;10.70;;;8.70;;
7031;SDS011;3557;48.880;8.328;2024-03-08T12:15:56;10.65;;;8.82;;
7031;SDS011;3557;48.880;8.328;2024-03-08T12:18:24;10.32;;;8.73;;
7031;SDS011;3557;48.880;8.328;2024-03-08T12:21:03;11.88;;;9.98;;
7031;SDS011;3557;48.880;8.328;2024-03-08T12:23:32;11.70;;;9.45;;
7031;SDS011;3557;48.880;8.328;2024-03-08T12:26:08;10.15;;;8.82;;
7031;SDS011;3557;48.880;8.328;2024-03-08T12:28:38;10.95;;;8.57;;
7031;SDS011;3557;48.880;8.328;2024-03-08T12:31:07;10.25;;;8.77;;
7031;SDS011;3557;48.880;8.328;2024-03-08T12:33:36;9.98;;;8.32;;
7031;SDS011;3557;48.880;8.328;2024-03-08T12:36:14;10.85;;;8.68;;
7031;SDS011;3557;48.880;8.328;2024-03-08T12:38:43;10.27;;;8.52;;
7031;SDS011;3557;48.880;8.328;2024-03-08T12:41:13;10.05;;;8.20;;
7031;SDS011;3557;48.880;8.328;2024-03-08T12:43:40;10.30;;;8.73;;
7031;SDS011;3557;48.880;8.328;2024-03-08T12:46:12;11.23;;;8.65;;
7031;SDS011;3557;48.880;8.328;2024-03-08T12:48:40;11.00;;;8.80;;
7031;SDS011;3557;48.880;8.328;2024-03-08T12:51:12;15.63;;;8.80;;
7031;SDS011;3557;48.880;8.328;2024-03-08T12:53:41;9.82;;;8.52;;
7031;SDS011;3557;48.880;8.328;2024-03-08T12:56:09;10.88;;;8.75;;
7031;SDS011;3557;48.880;8.328;2024-03-08T12:58:37;10.80;;;8.45;;
7031;SDS011;3557;48.880;8.328;2024-03-08T13:01:05;11.32;;;8.50;;
7031;SDS011;3557;48.880;8.328;2024-03-08T13:03:35;12.10;;;8.85;;
7031;SDS011;3557;48.880;8.328;2024-03-08T13:06:02;10.35;;;8.25;;
7031;SDS011;3557;48.880;8.328;2024-03-08T13:08:33;10.90;;;8.50;;
7031;SDS011;3557;48.880;8.328;2024-03-08T13:11:04;9.98;;;8.50;;
7031;SDS011;3557;48.880;8.328;2024-03-08T13:13:32;9.30;;;7.95;;
7031;SDS011;3557;48.880;8.328;2024-03-08T13:16:00;9.20;;;8.15;;
7031;SDS011;3557;48.880;8.328;2024-03-08T13:18:28;10.15;;;8.68;;
7031;SDS011;3557;48.880;8.328;2024-03-08T13:20:57;10.82;;;8.77;;
7031;SDS011;3557;48.880;8.328;2024-03-08T13:23:24;9.43;;;7.80;;
7031;SDS011;3557;48.880;8.328;2024-03-08T13:25:51;10.18;;;8.57;;
7031;SDS011;3557;48.880;8.328;2024-03-08T13:28:19;10.02;;;8.10;;
7031;SDS011;3557;48.880;8.328;2024-03-08T13:30:51;9.85;;;7.82;;
7031;SDS011;3557;48.880;8.328;2024-03-08T13:33:19;11.10;;;8.13;;
7031;SDS011;3557;48.880;8.328;2024-03-08T13:35:46;10.02;;;7.70;;
7031;SDS011;3557;48.880;8.328;2024-03-08T13:38:16;11.10;;;8.85;;
7031;SDS011;3557;48.880;8.328;2024-03-08T13:40:45;8.90;;;7.57;;
7031;SDS011;3557;48.880;8.328;2024-03-08T13:43:14;10.70;;;7.35;;
7031;SDS011;3557;48.880;8.328;2024-03-08T13:45:41;9.73;;;8.07;;
7031;SDS011;3557;48.880;8.328;2024-03-08T13:48:09;8.68;;;7.57;;
7031;SDS011;3557;48.880;8.328;2024-03-08T13:50:37;10.30;;;7.90;;
7031;SDS011;3557;48.880;8.328;2024-03-08T13:53:05;9.77;;;7.57;;
7031;SDS011;3557;48.880;8.328;2024-03-08T13:55:36;14.15;;;7.97;;
7031;SDS011;3557;48.880;8.328;2024-03-08T13:58:04;9.50;;;7.80;;
7031;SDS011;3557;48.880;8.328;2024-03-08T14:00:34;8.77;;;7.35;;
7031;SDS011;3557;48.880;8.328;2024-03-08T14:03:02;8.57;;;6.97;;
7031;SDS011;3557;48.880;8.328;2024-03-08T14:05:30;9.15;;;7.15;;
7031;SDS011;3557;48.880;8.328;2024-03-08T14:08:00;9.27;;;6.75;;
7031;SDS011;3557;48.880;8.328;2024-03-08T14:10:28;9.40;;;7.40;;
7031;SDS011;3557;48.880;8.328;2024-03-08T14:12:58;10.68;;;8.00;;
7031;SDS011;3557;48.880;8.328;2024-03-08T14:15:26;12.30;;;9.45;;
7031;SDS011;3557;48.880;8.328;2024-03-08T14:17:53;8.73;;;7.50;;
7031;SDS011;3557;48.880;8.328;2024-03-08T14:20:21;11.48;;;7.15;;
7031;SDS011;3557;48.880;8.328;2024-03-08T14:22:50;9.55;;;7.85;;
7031;SDS011;3557;48.880;8.328;2024-03-08T14:25:18;13.65;;;7.93;;
7031;SDS011;3557;48.880;8.328;2024-03-08T14:27:45;8.48;;;6.90;;
7031;SDS011;3557;48.880;8.328;2024-03-08T14:30:16;8.25;;;7.30;;
7031;SDS011;3557;48.880;8.328;2024-03-08T14:32:57;9.82;;;7.43;;
7031;SDS011;3557;48.880;8.328;2024-03-08T14:35:25;9.82;;;8.02;;
7031;SDS011;3557;48.880;8.328;2024-03-08T14:37:52;7.75;;;6.82;;
7031;SDS011;3557;48.880;8.328;2024-03-08T14:40:19;7.85;;;6.63;;
7031;SDS011;3557;48.880;8.328;2024-03-08T14:42:47;8.68;;;6.53;;
7031;SDS011;3557;48.880;8.328;2024-03-08T14:45:17;8.30;;;6.90;;
7031;SDS011;3557;48.880;8.328;2024-03-08T14:47:45;9.93;;;7.68;;
7031;SDS011;3557;48.880;8.328;2024-03-08T14:50:15;7.82;;;6.70;;
7031;SDS011;3557;48.880;8.328;2024-03-08T14:52:43;9.27;;;7.10;;
7031;SDS011;3557;48.880;8.328;2024-03-08T14:55:11;7.82;;;7.00;;
7031;SDS011;3557;48.880;8.328;2024-03-08T14:57:40;7.65;;;6.53;;
7031;SDS011;3557;48.880;8.328;2024-03-08T15:00:10;8.32;;;6.70;;
7031;SDS011;3557;48.880;8.328;2024-03-08T15:02:44;8.43;;;7.00;;
7031;SDS011;3557;48.880;8.328;2024-03-08T15:05:13;9.00;;;7.40;;